createdAt,value
2018-04-27T08:13:15.013Z,79.40
2018-04-27T08:15:42.503Z,79.30
2018-04-27T08:18:10.046Z,79.50
2018-04-27T08:20:38.390Z,79.40
2018-04-27T08:23:06.757Z,76.60
2018-04-27T08:25:35.078Z,81.40
2018-04-27T08:28:02.597Z,81.50
2018-04-27T08:30:30.901Z,76.40
2018-04-27T08:32:58.436Z,76.40
2018-04-27T08:35:25.954Z,74.50
2018-04-27T08:37:53.453Z,74.50
2018-04-27T08:40:21.734Z,73.20
2018-04-27T08:42:49.340Z,73.30
2018-04-27T08:45:17.162Z,73.10
2018-04-27T08:47:44.686Z,71.40
2018-04-27T08:50:12.260Z,72.00
2018-04-27T08:52:40.523Z,71.80
2018-04-27T08:55:08.037Z,71.80
2018-04-27T08:57:35.538Z,71.10
2018-04-27T09:00:03.082Z,72.80
2018-04-27T09:02:30.610Z,72.80
2018-04-27T09:04:58.110Z,72.80
2018-04-27T09:07:25.608Z,71.60
2018-04-27T09:09:53.122Z,72.90
2018-04-27T09:12:20.645Z,70.80
2018-04-27T09:14:48.163Z,69.80
2018-04-27T09:17:15.713Z,71.30
2018-04-27T09:19:44.017Z,70.60
2018-04-27T09:22:12.016Z,70.60
2018-04-27T09:24:40.447Z,69.30
2018-04-27T09:27:07.938Z,70.00
2018-04-27T09:29:35.423Z,69.80
2018-04-27T09:32:03.062Z,68.70
2018-04-27T09:34:30.807Z,68.90
2018-04-27T09:36:58.323Z,69.30
2018-04-27T09:39:26.604Z,67.90
2018-04-27T09:41:54.959Z,68.20
2018-04-27T09:44:22.525Z,68.40
2018-04-27T09:46:50.032Z,66.40
2018-04-27T09:49:18.345Z,65.70
2018-04-27T09:51:46.649Z,66.50
2018-04-27T09:54:14.902Z,66.80
2018-04-27T09:56:42.401Z,66.80
2018-04-27T09:59:09.897Z,66.00
2018-04-27T10:01:37.409Z,66.10
2018-04-27T10:04:04.978Z,63.40
2018-04-27T10:06:32.461Z,63.30
2018-04-27T10:08:59.972Z,63.20
2018-04-27T10:11:27.468Z,62.60
2018-04-27T10:13:55.047Z,62.70
2018-04-27T10:16:23.748Z,63.80
2018-04-27T10:18:51.265Z,61.00
2018-04-27T10:21:19.527Z,63.00
2018-04-27T10:23:47.043Z,62.10
2018-04-27T10:26:23.177Z,59.60
2018-04-27T10:28:50.716Z,59.60
2018-04-27T10:31:19.047Z,58.20
2018-04-27T10:33:47.327Z,61.00
2018-04-27T10:36:15.587Z,59.70
2018-04-27T10:38:43.850Z,58.50
2018-04-27T10:41:11.335Z,58.30
2018-04-27T10:43:39.586Z,56.00
2018-04-27T10:46:07.084Z,56.10
2018-04-27T10:48:34.644Z,54.30
2018-04-27T10:51:02.170Z,54.20
2018-04-27T10:53:30.475Z,54.20
2018-04-27T10:55:58.010Z,54.30
2018-04-27T10:58:26.278Z,53.40
2018-04-27T11:00:54.630Z,53.00
2018-04-27T11:03:22.193Z,52.90
2018-04-27T11:05:49.910Z,53.20
2018-04-27T11:08:17.414Z,52.50
2018-04-27T11:10:44.955Z,57.20
2018-04-27T11:13:13.044Z,56.00
2018-04-27T11:15:40.546Z,51.50
2018-04-27T11:18:08.056Z,51.80
2018-04-27T11:20:35.554Z,51.50
2018-04-27T11:23:03.106Z,50.40
2018-04-27T11:25:35.635Z,52.30
2018-04-27T11:28:04.112Z,50.70
2018-04-27T11:30:31.759Z,50.30
2018-04-27T11:32:59.282Z,51.40
2018-04-27T11:35:26.779Z,52.60
2018-04-27T11:37:54.376Z,50.20
2018-04-27T11:40:21.916Z,50.20
2018-04-27T11:42:49.431Z,48.50
2018-04-27T11:45:17.089Z,48.70
2018-04-27T11:47:45.382Z,48.60
2018-04-27T11:50:12.862Z,48.70
2018-04-27T11:52:40.459Z,47.80
2018-04-27T11:55:07.995Z,49.00
2018-04-27T11:57:35.479Z,49.30
2018-04-27T12:00:02.979Z,47.50
2018-04-27T12:02:30.729Z,48.90
2018-04-27T12:04:58.973Z,48.60
2018-04-27T12:07:26.518Z,50.60
2018-04-27T12:09:54.040Z,48.90
2018-04-27T12:12:22.347Z,47.60
2018-04-27T12:14:50.855Z,50.40
2018-04-27T12:17:18.465Z,50.40
2018-04-27T12:19:45.990Z,50.00
2018-04-27T12:22:13.475Z,48.30
2018-04-27T12:24:41.001Z,55.30
2018-04-27T12:27:08.501Z,47.50
2018-04-27T12:29:36.143Z,48.50
2018-04-27T12:32:03.736Z,48.90
2018-04-27T12:34:33.551Z,48.40
2018-04-27T12:37:03.595Z,45.10
2018-04-27T12:39:31.157Z,45.10
2018-04-27T12:41:58.670Z,47.30
2018-04-27T12:44:26.968Z,45.70
2018-04-27T12:46:54.501Z,45.70
2018-04-27T12:49:21.984Z,45.70
2018-04-27T12:51:50.306Z,44.40
2018-04-27T12:54:17.835Z,44.40
2018-04-27T12:56:45.333Z,46.90
2018-04-27T12:59:12.831Z,45.10
2018-04-27T13:01:40.336Z,45.60
2018-04-27T13:04:07.848Z,45.70
2018-04-27T13:06:35.351Z,46.30
2018-04-27T13:09:03.631Z,42.60
2018-04-27T13:11:31.141Z,42.60
2018-04-27T13:13:58.825Z,42.90
2018-04-27T13:16:26.374Z,41.70
2018-04-27T13:18:53.908Z,41.00
2018-04-27T13:21:21.398Z,43.50
2018-04-27T13:23:48.908Z,42.10
2018-04-27T13:26:17.209Z,40.40
2018-04-27T13:28:44.716Z,40.40
2018-04-27T13:31:12.540Z,41.10
2018-04-27T13:33:40.049Z,40.90
2018-04-27T13:36:07.540Z,41.70
2018-04-27T13:38:35.863Z,43.10
2018-04-27T13:41:03.392Z,43.10
2018-04-27T13:43:31.088Z,42.50
2018-04-27T13:45:58.600Z,43.20
2018-04-27T13:48:26.122Z,42.20
2018-04-27T13:50:53.614Z,44.00
2018-04-27T13:53:21.126Z,43.00
2018-04-27T13:55:48.652Z,43.80
2018-04-27T13:58:17.488Z,44.20
2018-04-27T14:00:45.800Z,46.30
2018-04-27T14:03:13.325Z,46.30
2018-04-27T14:05:41.714Z,43.80
2018-04-27T14:08:09.160Z,43.80
2018-04-27T14:10:37.429Z,44.50
2018-04-27T14:13:05.752Z,45.60
2018-04-27T14:15:33.326Z,45.70
2018-04-27T14:18:01.631Z,45.00
2018-04-27T14:20:29.162Z,47.20
2018-04-27T14:22:56.648Z,45.30
2018-04-27T14:25:24.154Z,45.80
2018-04-27T14:27:52.408Z,45.90
2018-04-27T14:30:20.951Z,46.00
2018-04-27T14:32:48.443Z,46.00
2018-04-27T14:35:15.992Z,46.60
2018-04-27T14:37:43.527Z,47.20
2018-04-27T14:40:11.037Z,46.90
2018-04-27T14:42:38.520Z,46.90
2018-04-27T14:45:06.071Z,45.10
2018-04-27T14:47:33.561Z,45.80
2018-04-27T14:50:01.052Z,45.50
2018-04-27T14:52:28.633Z,47.50
2018-04-27T14:54:56.878Z,46.60
2018-04-27T14:57:24.400Z,46.60
2018-04-27T14:59:53.113Z,48.00
2018-04-27T15:02:21.400Z,48.20
2018-04-27T15:04:48.896Z,48.20
2018-04-27T15:07:16.706Z,48.50
2018-04-27T15:09:44.966Z,50.00
2018-04-27T15:12:12.471Z,49.90
2018-04-27T15:14:40.004Z,50.90
2018-04-27T15:17:07.522Z,53.60
2018-04-27T15:19:35.029Z,54.70
2018-04-27T15:22:03.354Z,49.00
2018-04-27T15:24:30.966Z,48.90
2018-04-27T15:26:58.467Z,47.40
2018-04-27T15:29:25.959Z,48.10
2018-04-27T15:31:54.233Z,46.80
2018-04-27T15:34:22.523Z,47.40
2018-04-27T15:36:50.015Z,47.40
2018-04-27T15:39:18.345Z,48.00
2018-04-27T15:41:46.594Z,48.00
2018-04-27T15:44:14.131Z,48.00
2018-04-27T15:46:41.631Z,48.80
2018-04-27T15:49:09.959Z,48.70
2018-04-27T15:51:38.313Z,47.90
2018-04-27T15:54:05.837Z,47.20
2018-04-27T15:56:34.127Z,48.60
2018-04-27T15:59:01.811Z,48.60
2018-04-27T16:01:29.351Z,49.10
2018-04-27T16:03:56.907Z,49.00
2018-04-27T16:06:24.407Z,49.30
2018-04-27T16:08:52.675Z,52.20
2018-04-27T16:11:20.184Z,52.20
2018-04-27T16:13:59.751Z,53.40
2018-04-27T16:16:29.054Z,53.40
2018-04-27T16:18:58.230Z,54.80
2018-04-27T16:21:25.773Z,56.50
2018-04-27T16:23:54.069Z,55.80
2018-04-27T16:26:23.157Z,56.00
2018-04-27T16:28:51.422Z,55.90
2018-04-27T16:31:19.688Z,55.50
2018-04-27T16:33:47.941Z,56.90
2018-04-27T16:36:15.435Z,56.90
2018-04-27T16:38:43.720Z,58.90
2018-04-27T16:41:11.224Z,58.80
2018-04-27T16:43:38.715Z,59.70
2018-04-27T16:46:07.029Z,56.90
2018-04-27T16:48:34.601Z,56.80
2018-04-27T16:51:02.165Z,59.00
2018-04-27T16:53:29.660Z,57.60
2018-04-27T16:55:57.183Z,58.20
2018-04-27T16:58:24.705Z,59.30
2018-04-27T17:00:52.197Z,60.30
2018-04-27T17:03:19.707Z,58.20
2018-04-27T17:05:47.217Z,59.10
2018-04-27T17:08:14.842Z,59.10
2018-04-27T17:10:42.398Z,60.40
2018-04-27T17:13:09.934Z,59.70
2018-04-27T17:15:39.104Z,59.80
2018-04-27T17:18:06.649Z,59.90
2018-04-27T17:20:35.282Z,61.60
2018-04-27T17:23:03.476Z,61.50
2018-04-27T17:25:31.014Z,60.80
2018-04-27T17:27:58.510Z,58.70
2018-04-27T17:30:28.690Z,61.20
2018-04-27T17:32:56.222Z,60.40
2018-04-27T17:35:24.721Z,62.30
2018-04-27T17:37:52.303Z,62.50
2018-04-27T17:40:19.900Z,63.50
2018-04-27T17:42:47.404Z,63.60
2018-04-27T17:45:14.924Z,61.20
2018-04-27T17:47:42.427Z,63.10
2018-04-27T17:50:09.957Z,63.10
2018-04-27T17:52:38.224Z,61.30
2018-04-27T17:55:07.387Z,61.30
2018-04-27T17:57:34.969Z,61.50
2018-04-27T18:00:03.258Z,63.80
2018-04-27T18:02:32.327Z,65.00
2018-04-27T18:04:59.966Z,65.00
2018-04-27T18:07:27.496Z,64.20
2018-04-27T18:09:55.009Z,66.70
2018-04-27T18:12:22.517Z,66.90
2018-04-27T18:14:51.091Z,65.90
2018-04-27T18:17:18.598Z,65.00
2018-04-27T18:19:46.113Z,64.60
2018-04-27T18:22:13.621Z,64.00
2018-04-27T18:24:41.124Z,63.50
2018-04-27T18:27:08.639Z,62.10
2018-04-27T18:29:36.171Z,62.20
2018-04-27T18:32:03.727Z,65.40
2018-04-27T18:34:31.219Z,66.40
2018-04-27T18:36:59.535Z,67.40
2018-04-27T18:39:27.138Z,68.10
2018-04-27T18:41:54.615Z,68.60
2018-04-27T18:44:22.870Z,69.10
2018-04-27T18:46:50.392Z,69.10
2018-04-27T18:49:18.651Z,67.90
2018-04-27T18:51:46.171Z,67.90
2018-04-27T18:54:13.702Z,66.00
2018-04-27T18:56:41.219Z,68.50
2018-04-27T18:59:08.716Z,67.30
2018-04-27T19:01:37.088Z,67.90
2018-04-27T19:04:04.599Z,67.90
2018-04-27T19:06:32.896Z,68.20
2018-04-27T19:09:00.485Z,67.50
2018-04-27T19:11:28.015Z,68.30
2018-04-27T19:13:55.514Z,67.30
2018-04-27T19:16:23.805Z,66.80
2018-04-27T19:18:57.677Z,68.70
2018-04-27T19:21:25.214Z,68.90
2018-04-27T19:23:53.519Z,67.70
2018-04-27T19:26:21.084Z,67.60
2018-04-27T19:28:48.688Z,68.60
2018-04-27T19:31:16.217Z,68.70
2018-04-27T19:33:43.739Z,69.30
2018-04-27T19:36:11.249Z,70.20
2018-04-27T19:38:39.552Z,69.90
2018-04-27T19:41:07.075Z,70.10
2018-04-27T19:43:35.346Z,70.20
2018-04-27T19:46:03.665Z,70.10
2018-04-27T19:48:31.218Z,70.40
2018-04-27T19:50:58.727Z,70.00
2018-04-27T19:53:26.245Z,68.90
2018-04-27T19:55:53.732Z,68.30
2018-04-27T19:58:21.263Z,67.30
2018-04-27T20:00:48.766Z,67.10
2018-04-27T20:03:17.646Z,69.10
2018-04-27T20:05:47.985Z,68.90
2018-04-27T20:08:16.260Z,68.70
2018-04-27T20:10:44.722Z,68.70
2018-04-27T20:13:15.835Z,68.60
2018-04-27T20:15:44.128Z,68.10
2018-04-27T20:18:19.375Z,69.80
2018-04-27T20:20:47.713Z,67.10
2018-04-27T20:23:15.222Z,66.90
2018-04-27T20:25:43.500Z,67.90
2018-04-27T20:28:12.662Z,66.80
2018-04-27T20:30:40.214Z,66.60
2018-04-27T20:33:14.359Z,66.40
2018-04-27T20:35:41.924Z,66.60
2018-04-27T20:38:16.004Z,67.10
2018-04-27T20:40:43.544Z,67.10
2018-04-27T20:43:11.889Z,67.00
2018-04-27T20:45:40.162Z,68.30
2018-04-27T20:48:17.075Z,68.20
2018-04-27T20:50:47.246Z,68.20
2018-04-27T20:53:14.941Z,68.00
2018-04-27T20:55:42.427Z,68.10
2018-04-27T20:58:09.968Z,69.10
2018-04-27T21:00:38.301Z,68.80
2018-04-27T21:03:06.572Z,69.10
2018-04-27T21:05:34.835Z,69.30
2018-04-27T21:08:02.400Z,69.30
2018-04-27T21:10:33.778Z,69.50
2018-04-27T21:13:05.910Z,70.30
2018-04-27T21:15:33.430Z,70.70
2018-04-27T21:18:07.387Z,70.90
2018-04-27T21:20:39.259Z,71.40
2018-04-27T21:23:09.397Z,71.60
2018-04-27T21:25:39.942Z,71.60
2018-04-27T21:28:15.533Z,72.30
2018-04-27T21:30:44.373Z,72.20
2018-04-27T21:33:12.718Z,71.80
2018-04-27T21:35:57.669Z,72.20
2018-04-27T21:41:31.933Z,72.70
2018-04-27T21:44:20.858Z,73.10
2018-04-27T21:46:51.178Z,74.00
2018-04-27T21:49:19.496Z,74.10
2018-04-27T21:51:49.369Z,74.00
2018-04-27T21:54:18.381Z,74.40
2018-04-27T21:56:54.607Z,74.40
2018-04-27T21:59:24.705Z,74.60
2018-04-27T22:01:52.193Z,75.30
2018-04-27T22:04:21.219Z,75.70
2018-04-27T22:06:48.750Z,75.50
2018-04-27T22:09:18.115Z,75.90
2018-04-27T22:11:47.161Z,81.10
2018-04-27T22:14:19.243Z,81.00
2018-04-27T22:19:49.957Z,77.00
2018-04-27T22:22:19.051Z,79.70
2018-04-27T22:24:51.127Z,79.70
2018-04-27T22:27:19.439Z,81.90
2018-04-27T22:29:47.053Z,81.70
2018-04-27T22:32:23.991Z,76.80
2018-04-27T22:34:54.415Z,76.80
2018-04-27T22:37:22.719Z,79.80
2018-04-27T22:39:50.523Z,80.10
2018-04-27T22:42:20.556Z,84.00
2018-04-27T22:44:51.173Z,84.20
2018-04-27T22:47:28.143Z,85.30
2018-04-27T22:49:56.040Z,82.40
2018-04-27T22:52:23.535Z,87.30
2018-04-27T22:54:52.836Z,88.20
2018-04-27T22:57:25.662Z,86.30
2018-04-27T22:59:55.081Z,87.60
2018-04-27T23:02:22.571Z,88.40
2018-04-27T23:04:51.998Z,90.10
2018-04-27T23:07:22.410Z,89.20
2018-04-27T23:09:51.362Z,89.80
2018-04-27T23:12:19.856Z,89.80
2018-04-27T23:14:49.190Z,90.30
2018-04-27T23:17:16.724Z,90.60
2018-04-27T23:22:42.745Z,91.70
2018-04-27T23:25:16.023Z,91.00
2018-04-27T23:27:43.572Z,90.90
2018-04-27T23:30:11.096Z,91.20
2018-04-27T23:32:40.200Z,91.20
2018-04-27T23:35:07.749Z,91.00
2018-04-27T23:37:36.000Z,91.60
2018-04-27T23:40:03.514Z,91.60
2018-04-27T23:42:31.485Z,92.10
2018-04-27T23:44:59.012Z,92.60
2018-04-27T23:47:27.625Z,92.60
2018-04-27T23:49:55.148Z,92.60
2018-04-27T23:52:23.438Z,91.90
2018-04-27T23:54:52.085Z,91.90
2018-04-27T23:57:19.662Z,92.60
2018-04-27T23:59:50.831Z,92.70
